createdAt,value
2023-04-16T00:00:30.345Z,101.071
2023-04-16T00:01:30.391Z,101.214
2023-04-16T00:02:30.569Z,101.071
2023-04-16T00:03:30.683Z,101.214
2023-04-16T00:04:30.598Z,101.143
2023-04-16T00:05:30.547Z,101.214
2023-04-16T00:06:30.603Z,101.071
2023-04-16T00:07:30.638Z,101.214
2023-04-16T00:08:30.674Z,101.214
2023-04-16T00:09:30.722Z,101.143
2023-04-16T00:10:30.754Z,101.071
2023-04-16T00:11:30.808Z,101.071
2023-04-16T00:12:30.854Z,101.071
2023-04-16T00:13:30.876Z,101.071
2023-04-16T00:14:30.928Z,101.071
2023-04-16T00:15:30.965Z,101.357
2023-04-16T00:16:31.056Z,101.071
2023-04-16T00:17:31.067Z,101.143
2023-04-16T00:18:31.081Z,101.214
2023-04-16T00:19:31.133Z,101.071
2023-04-16T00:20:31.168Z,101.143
2023-04-16T00:21:31.234Z,101.071
2023-04-16T00:22:31.253Z,101.071
2023-04-16T00:23:31.304Z,101.214
2023-04-16T00:24:31.340Z,101.071
2023-04-16T00:25:31.386Z,101.143
2023-04-16T00:26:31.441Z,101.071
2023-04-16T00:27:31.466Z,101.143
2023-04-16T00:28:31.503Z,101.286
2023-04-16T00:29:31.540Z,101.071
2023-04-16T00:30:31.582Z,101.143
2023-04-16T00:31:31.679Z,101.071
2023-04-16T00:32:31.691Z,101.286
2023-04-16T00:33:31.699Z,101.143
2023-04-16T00:34:31.743Z,101.143
2023-04-16T00:35:31.788Z,101.286
2023-04-16T00:36:31.834Z,101.286
2023-04-16T00:37:31.875Z,101.071
2023-04-16T00:38:31.918Z,101.143
2023-04-16T00:39:31.961Z,101.357
2023-04-16T00:40:31.997Z,101.357
2023-04-16T00:41:32.033Z,101.286
2023-04-16T00:42:32.087Z,101.143
2023-04-16T00:43:32.126Z,101.143
2023-04-16T00:44:32.160Z,101.143
2023-04-16T00:45:32.210Z,101.143
2023-04-16T00:46:32.300Z,101.143
2023-04-16T00:47:32.336Z,101.143
2023-04-16T00:48:32.332Z,101.286
2023-04-16T00:49:32.368Z,101.143
2023-04-16T00:50:32.398Z,101.071
2023-04-16T00:51:32.446Z,101.286
2023-04-16T00:52:32.490Z,101.286
2023-04-16T00:53:32.542Z,101.214
2023-04-16T00:54:32.565Z,101.286
2023-04-16T00:55:32.615Z,101.143
2023-04-16T00:56:32.655Z,101.071
2023-04-16T00:57:32.703Z,101.286
2023-04-16T00:58:32.767Z,101.143
2023-04-16T00:59:32.778Z,101.286
2023-04-16T01:00:32.827Z,101.286
2023-04-16T01:01:32.898Z,101.143
2023-04-16T01:02:32.962Z,101.286
2023-04-16T01:03:33.051Z,101.143
2023-04-16T01:04:33.013Z,101.286
2023-04-16T01:05:33.037Z,101.143
2023-04-16T01:06:33.076Z,101.286
2023-04-16T01:07:33.137Z,101.286
2023-04-16T01:08:33.176Z,101.214
2023-04-16T01:09:33.211Z,101.143
2023-04-16T01:10:33.255Z,101.143
2023-04-16T01:11:33.301Z,101.286
2023-04-16T01:12:33.345Z,101.143
2023-04-16T01:13:33.371Z,101.143
2023-04-16T01:14:33.421Z,101.143
2023-04-16T01:15:33.472Z,101.286
2023-04-16T01:16:33.507Z,101.286
2023-04-16T01:17:33.636Z,101.143
2023-04-16T01:18:33.597Z,101.143
2023-04-16T01:19:33.633Z,101.286
2023-04-16T01:20:33.670Z,101.286
2023-04-16T01:21:33.713Z,101.286
2023-04-16T01:22:33.761Z,101.286
2023-04-16T01:23:33.795Z,101.143
2023-04-16T01:24:33.842Z,101.286
2023-04-16T01:25:33.883Z,101.286
2023-04-16T01:26:33.916Z,101.214
2023-04-16T01:27:33.957Z,101.286
2023-04-16T01:28:34.008Z,101.286
2023-04-16T01:29:34.046Z,101.286
2023-04-16T01:30:34.086Z,101.214
2023-04-16T01:31:34.175Z,101.286
2023-04-16T01:32:34.222Z,101.143
2023-04-16T01:33:34.213Z,101.286
2023-04-16T01:34:34.266Z,101.214
2023-04-16T01:35:34.307Z,101.286
2023-04-16T01:36:34.360Z,101.286
2023-04-16T01:37:34.384Z,101.286
2023-04-16T01:38:34.435Z,101.286
2023-04-16T01:39:34.471Z,101.071
2023-04-16T01:40:34.530Z,101.286
2023-04-16T01:41:34.552Z,101.286
2023-04-16T01:42:34.604Z,101.286
2023-04-16T01:43:34.632Z,101.286
2023-04-16T01:44:34.683Z,101.286
2023-04-16T01:45:34.720Z,101.214
2023-04-16T01:46:34.793Z,101.286
2023-04-16T01:47:34.805Z,101.071
2023-04-16T01:48:34.837Z,101.214
2023-04-16T01:49:34.877Z,101.143
2023-04-16T01:50:34.933Z,101.214
2023-04-16T01:51:34.967Z,101.214
2023-04-16T01:52:35.007Z,101.143
2023-04-16T01:53:37.008Z,101.214
2023-04-16T01:54:35.083Z,101.143
2023-04-16T01:55:35.130Z,101
2023-04-16T01:56:35.154Z,101
2023-04-16T01:57:35.206Z,101.143
2023-04-16T01:58:35.237Z,101.071
2023-04-16T01:59:35.290Z,101.214
2023-04-16T02:00:35.357Z,101.214
2023-04-16T02:01:35.361Z,101.214
2023-04-16T02:02:35.572Z,101.143
2023-04-16T02:03:35.640Z,101.143
2023-04-16T02:04:35.489Z,101.143
2023-04-16T02:05:35.539Z,101.214
2023-04-16T02:06:35.583Z,101
2023-04-16T02:07:35.627Z,101.143
2023-04-16T02:08:35.660Z,101.071
2023-04-16T02:09:35.706Z,101.071
2023-04-16T02:10:35.748Z,101.071
2023-04-16T02:11:35.779Z,101
2023-04-16T02:12:35.831Z,101.214
2023-04-16T02:13:35.891Z,101.214
2023-04-16T02:14:35.904Z,101.071
2023-04-16T02:15:35.937Z,101.286
2023-04-16T02:16:36.041Z,101.071
2023-04-16T02:17:36.066Z,101.214
2023-04-16T02:18:36.058Z,101.143
2023-04-16T02:19:36.114Z,101.143
2023-04-16T02:20:36.156Z,101.071
2023-04-16T02:21:36.194Z,101.071
2023-04-16T02:22:36.238Z,101.143
2023-04-16T02:23:36.294Z,101.286
2023-04-16T02:24:36.327Z,101.214
2023-04-16T02:25:36.377Z,101.143
2023-04-16T02:26:36.420Z,101.071
2023-04-16T02:27:36.456Z,101.143
2023-04-16T02:28:36.507Z,101.071
2023-04-16T02:29:36.533Z,101.214
2023-04-16T02:30:36.584Z,101.286
2023-04-16T02:31:36.653Z,101.214
2023-04-16T02:32:36.684Z,101.214
2023-04-16T02:33:36.694Z,101.214
2023-04-16T02:34:36.737Z,101.071
2023-04-16T02:35:36.788Z,101.071
2023-04-16T02:36:36.837Z,101.214
2023-04-16T02:37:36.871Z,101.071
2023-04-16T02:38:36.908Z,101.214
2023-04-16T02:39:36.953Z,101.214
2023-04-16T02:40:36.990Z,101.214
2023-04-16T02:41:37.020Z,101.214
2023-04-16T02:42:37.064Z,101.214
2023-04-16T02:43:37.108Z,101.214
2023-04-16T02:44:37.139Z,101.214
2023-04-16T02:45:37.200Z,101.214
2023-04-16T02:46:37.227Z,101.071
2023-04-16T02:47:37.324Z,101.214
2023-04-16T02:48:37.321Z,101.214
2023-04-16T02:49:37.357Z,101.286
2023-04-16T02:50:37.393Z,101.214
2023-04-16T02:51:37.433Z,101.214
2023-04-16T02:52:37.469Z,101.214
2023-04-16T02:53:37.514Z,101.286
2023-04-16T02:54:37.566Z,101.214
2023-04-16T02:55:37.600Z,101.429
2023-04-16T02:56:37.658Z,101.071
2023-04-16T02:57:37.697Z,101.214
2023-04-16T02:58:37.706Z,101.286
2023-04-16T02:59:37.751Z,101.429
2023-04-16T03:00:37.808Z,101.286
2023-04-16T03:01:37.890Z,101.429
2023-04-16T03:02:37.934Z,101.214
2023-04-16T03:03:37.919Z,101.286
2023-04-16T03:04:37.990Z,101.286
2023-04-16T03:05:40.233Z,101.286
2023-04-16T03:06:38.038Z,101.143
2023-04-16T03:07:38.085Z,101.143
2023-04-16T03:08:38.118Z,101.286
2023-04-16T03:09:38.157Z,101.429
2023-04-16T03:10:38.196Z,101.214
2023-04-16T03:11:38.236Z,101.143
2023-04-16T03:12:38.287Z,101.286
2023-04-16T03:13:38.330Z,101.214
2023-04-16T03:14:38.359Z,101.214
2023-04-16T03:15:38.422Z,101.143
2023-04-16T03:16:38.457Z,101.429
2023-04-16T03:17:38.535Z,101.429
2023-04-16T03:18:38.542Z,101.214
2023-04-16T03:19:38.580Z,101.143
2023-04-16T03:20:38.620Z,101.286
2023-04-16T03:21:38.656Z,101.286
2023-04-16T03:22:38.710Z,101.286
2023-04-16T03:23:38.750Z,101.286
2023-04-16T03:24:38.787Z,101.143
2023-04-16T03:25:38.832Z,101.143
2023-04-16T03:26:38.864Z,101.286
2023-04-16T03:27:38.906Z,101.286
2023-04-16T03:28:38.954Z,101.143
2023-04-16T03:29:38.989Z,101.143
2023-04-16T03:30:39.029Z,101.286
2023-04-16T03:31:39.128Z,101.429
2023-04-16T03:32:39.145Z,101.286
2023-04-16T03:33:39.154Z,101.214
2023-04-16T03:34:39.208Z,101.429
2023-04-16T03:35:39.248Z,101.429
2023-04-16T03:36:39.289Z,101.286
2023-04-16T03:37:39.331Z,101.429
2023-04-16T03:38:39.384Z,101.214
2023-04-16T03:39:39.412Z,101.143
2023-04-16T03:40:39.460Z,101.214
2023-04-16T03:41:39.498Z,101.286
2023-04-16T03:42:39.529Z,101.286
2023-04-16T03:43:39.568Z,101.143
2023-04-16T03:44:39.603Z,101.357
2023-04-16T03:45:39.656Z,101.429
2023-04-16T03:46:39.751Z,101.214
2023-04-16T03:47:39.750Z,101.143
2023-04-16T03:48:39.773Z,101.357
2023-04-16T03:49:39.823Z,101.357
2023-04-16T03:50:39.855Z,101.286
2023-04-16T03:51:39.908Z,101.214
2023-04-16T03:52:39.939Z,101.286
2023-04-16T03:53:39.985Z,101.429
2023-04-16T03:54:40.043Z,101.071
2023-04-16T03:55:40.067Z,101.357
2023-04-16T03:56:40.109Z,101.214
2023-04-16T03:57:40.149Z,101.214
2023-04-16T03:58:40.199Z,101.286
2023-04-16T03:59:40.226Z,101.286
2023-04-16T04:00:40.273Z,101.357
2023-04-16T04:01:40.375Z,101.429
2023-04-16T04:02:40.503Z,101.143
2023-04-16T04:03:40.614Z,101.286
2023-04-16T04:04:40.496Z,101.214
2023-04-16T04:05:40.485Z,101.143
2023-04-16T04:06:40.519Z,101
2023-04-16T04:07:40.566Z,101.286
2023-04-16T04:08:40.619Z,101.214
2023-04-16T04:09:40.651Z,101.357
2023-04-16T04:10:40.699Z,101.357
2023-04-16T04:11:40.727Z,101.357
2023-04-16T04:12:40.770Z,101
2023-04-16T04:13:40.818Z,101.143
2023-04-16T04:14:40.850Z,101.143
2023-04-16T04:15:40.906Z,101.214
2023-04-16T04:16:41.104Z,101.429
2023-04-16T04:17:41.084Z,101.357
2023-04-16T04:18:42.164Z,101.286
2023-04-16T04:19:47.104Z,101.214
2023-04-16T04:20:41.107Z,101.214
2023-04-16T04:21:41.147Z,101.286
2023-04-16T04:22:41.197Z,101.5
2023-04-16T04:23:41.238Z,101.357
2023-04-16T04:24:41.279Z,101.214
2023-04-16T04:25:41.312Z,101.429
2023-04-16T04:26:41.357Z,101.357
2023-04-16T04:27:41.389Z,101.5
2023-04-16T04:28:41.439Z,101.357
2023-04-16T04:29:41.483Z,101.357
2023-04-16T04:30:41.514Z,101.143
2023-04-16T04:31:41.580Z,101.214
2023-04-16T04:32:41.664Z,101.214
2023-04-16T04:33:41.644Z,101.5
2023-04-16T04:34:41.678Z,101.357
2023-04-16T04:35:41.727Z,101.429
2023-04-16T04:36:41.761Z,101.214
2023-04-16T04:37:41.794Z,101.357
2023-04-16T04:38:41.839Z,101.357
2023-04-16T04:39:41.875Z,101.071
2023-04-16T04:40:41.913Z,101.429
2023-04-16T04:41:41.965Z,101.286
2023-04-16T04:42:42.009Z,101.429
2023-04-16T04:43:42.044Z,101.5
2023-04-16T04:44:42.088Z,101.5
2023-04-16T04:45:42.158Z,101.357
2023-04-16T04:46:42.171Z,101.286
2023-04-16T04:47:42.285Z,101.286
2023-04-16T04:48:42.246Z,101.357
2023-04-16T04:49:42.288Z,101.5
2023-04-16T04:50:42.336Z,101.214
2023-04-16T04:51:42.381Z,101.286
2023-04-16T04:52:42.416Z,101.5
2023-04-16T04:53:42.465Z,101.214
2023-04-16T04:54:42.509Z,101.429
2023-04-16T04:55:42.548Z,101.286
2023-04-16T04:56:42.580Z,101.286
2023-04-16T04:57:42.629Z,101.5
2023-04-16T04:58:42.674Z,101.357
2023-04-16T04:59:42.710Z,101.429
2023-04-16T05:00:42.748Z,101.429
2023-04-16T05:01:42.792Z,101.286
2023-04-16T05:02:42.867Z,101.357
2023-04-16T05:03:42.981Z,101.357
2023-04-16T05:04:42.954Z,101.429
2023-04-16T05:05:42.945Z,101.214
2023-04-16T05:06:42.980Z,101.357
2023-04-16T05:07:43.031Z,101.357
2023-04-16T05:08:43.074Z,101.429
2023-04-16T05:09:43.109Z,101.429
2023-04-16T05:10:43.144Z,101.286
2023-04-16T05:11:43.235Z,101.429
2023-04-16T05:12:43.220Z,101.429
2023-04-16T05:13:43.249Z,101.429
2023-04-16T05:14:43.285Z,101.286
2023-04-16T05:15:43.331Z,101.429
2023-04-16T05:16:43.428Z,101.429
2023-04-16T05:17:43.463Z,101.214
2023-04-16T05:18:43.442Z,101.429
2023-04-16T05:19:43.485Z,101.5
2023-04-16T05:20:43.532Z,101.429
2023-04-16T05:21:43.575Z,101.214
2023-04-16T05:22:43.690Z,101.357
2023-04-16T05:23:43.668Z,101.5
2023-04-16T05:24:43.673Z,101.429
2023-04-16T05:25:43.717Z,101.286
2023-04-16T05:26:43.757Z,101.429
2023-04-16T05:27:43.807Z,101.357
2023-04-16T05:28:43.846Z,101.286
2023-04-16T05:29:43.883Z,101.429
2023-04-16T05:30:43.927Z,101.571
2023-04-16T05:31:43.962Z,101.286
2023-04-16T05:32:44.042Z,101.429
2023-04-16T05:33:44.042Z,101.571
2023-04-16T05:34:44.084Z,101.286
2023-04-16T05:35:44.123Z,101.286
2023-04-16T05:36:44.165Z,101.429
2023-04-16T05:37:44.211Z,101.286
2023-04-16T05:38:44.242Z,101.286
2023-04-16T05:39:44.288Z,101.429
2023-04-16T05:40:44.342Z,101.429
2023-04-16T05:41:44.379Z,101.571
2023-04-16T05:42:44.421Z,101.429
2023-04-16T05:43:44.463Z,101.429
2023-04-16T05:44:44.502Z,101.429
2023-04-16T05:45:44.537Z,101.429
2023-04-16T05:46:44.580Z,101.429
2023-04-16T05:47:44.626Z,101.429
2023-04-16T05:48:44.649Z,101.429
2023-04-16T05:49:44.681Z,101.286
2023-04-16T05:50:44.725Z,101.429
2023-04-16T05:51:44.769Z,101.429
2023-04-16T05:52:44.798Z,101.286
2023-04-16T05:53:44.856Z,101.429
2023-04-16T05:54:44.894Z,101.429
2023-04-16T05:55:44.930Z,101.286
2023-04-16T05:56:44.962Z,101.429
2023-04-16T05:57:45.010Z,101.429
2023-04-16T05:58:45.045Z,101.429
2023-04-16T05:59:45.084Z,101.286
2023-04-16T06:00:45.170Z,101.286
2023-04-16T06:01:45.179Z,101.429
2023-04-16T06:02:45.363Z,101.429
2023-04-16T06:03:45.403Z,101.429
2023-04-16T06:04:45.302Z,101.429
2023-04-16T06:05:45.371Z,101.286
2023-04-16T06:06:45.395Z,101.286
2023-04-16T06:07:45.429Z,101.429
2023-04-16T06:08:45.466Z,101.429
2023-04-16T06:09:45.509Z,101.429
2023-04-16T06:10:45.547Z,101.286
2023-04-16T06:11:45.591Z,101.429
2023-04-16T06:12:45.635Z,101.286
2023-04-16T06:13:45.677Z,101.286
2023-04-16T06:14:45.720Z,101.357
2023-04-16T06:15:45.861Z,101.286
2023-04-16T06:16:45.812Z,101.214
2023-04-16T06:17:45.869Z,101.214
2023-04-16T06:18:45.896Z,101.429
2023-04-16T06:19:45.924Z,101.143
2023-04-16T06:20:45.970Z,101.286
2023-04-16T06:21:46.001Z,101.429
2023-04-16T06:22:46.047Z,101.429
2023-04-16T06:23:46.080Z,101.214
2023-04-16T06:24:46.111Z,101.429
2023-04-16T06:25:46.148Z,101.214
2023-04-16T06:26:46.187Z,101.429
2023-04-16T06:27:46.250Z,101.429
2023-04-16T06:28:46.262Z,101.357
2023-04-16T06:29:46.305Z,101.357
2023-04-16T06:30:46.341Z,101.357
2023-04-16T06:31:46.456Z,101.357
2023-04-16T06:32:46.550Z,101.5
2023-04-16T06:33:46.468Z,101.357
2023-04-16T06:34:46.499Z,101.429
2023-04-16T06:35:46.556Z,101.357
2023-04-16T06:36:46.591Z,101.286
2023-04-16T06:37:46.635Z,101.5
2023-04-16T06:38:46.677Z,101.357
2023-04-16T06:39:46.711Z,101.429
2023-04-16T06:40:46.746Z,101.5
2023-04-16T06:41:46.796Z,101.357
2023-04-16T06:42:46.841Z,101.357
2023-04-16T06:43:46.867Z,101.5
2023-04-16T06:44:46.920Z,101.286
2023-04-16T06:45:46.950Z,101.571
2023-04-16T06:46:47.018Z,101.357
2023-04-16T06:47:47.076Z,101.429
2023-04-16T06:48:47.079Z,101.5
2023-04-16T06:49:47.115Z,101.5
2023-04-16T06:50:47.152Z,101.214
2023-04-16T06:51:47.187Z,101.571
2023-04-16T06:52:47.241Z,101.357
2023-04-16T06:53:47.282Z,101.5
2023-04-16T06:54:47.321Z,101.357
2023-04-16T06:55:47.352Z,101.5
2023-04-16T06:56:47.387Z,101.214
2023-04-16T06:57:47.431Z,101.357
2023-04-16T06:58:47.469Z,101.5
2023-04-16T06:59:47.518Z,101.5
2023-04-16T07:00:47.581Z,101.357
2023-04-16T07:01:47.618Z,101.214
2023-04-16T07:02:47.713Z,101.5
2023-04-16T07:03:47.923Z,101.429
2023-04-16T07:04:47.702Z,101.357
2023-04-16T07:05:47.749Z,101.429
2023-04-16T07:06:47.825Z,101.5
2023-04-16T07:07:47.829Z,101.429
2023-04-16T07:08:47.869Z,101.571
2023-04-16T07:09:47.902Z,101.571
2023-04-16T07:10:47.935Z,101.286
2023-04-16T07:11:47.976Z,101.214
2023-04-16T07:12:48.027Z,101.571
2023-04-16T07:13:48.058Z,101.286
2023-04-16T07:14:48.089Z,101.571
2023-04-16T07:15:48.133Z,101.357
2023-04-16T07:16:48.203Z,101.5
2023-04-16T07:17:48.293Z,101.5
2023-04-16T07:18:48.263Z,101.286
2023-04-16T07:19:48.291Z,101.429
2023-04-16T07:20:48.347Z,101.5
2023-04-16T07:21:48.396Z,101.571
2023-04-16T07:22:48.429Z,101.5
2023-04-16T07:23:48.465Z,101.357
2023-04-16T07:24:48.516Z,101.5
2023-04-16T07:25:48.553Z,101.429
2023-04-16T07:26:48.576Z,101.5
2023-04-16T07:27:48.619Z,101.571
2023-04-16T07:28:48.653Z,101.357
2023-04-16T07:29:48.676Z,101.357
2023-04-16T07:30:48.733Z,101.429
2023-04-16T07:31:48.817Z,101.357
2023-04-16T07:32:48.858Z,101.357
2023-04-16T07:33:48.839Z,101.571
2023-04-16T07:34:48.883Z,101.429
2023-04-16T07:35:48.908Z,101.5
2023-04-16T07:36:48.942Z,101.571
2023-04-16T07:37:48.988Z,101.357
2023-04-16T07:38:49.032Z,101.357
2023-04-16T07:39:49.078Z,101.571
2023-04-16T07:40:49.137Z,101.571
2023-04-16T07:41:49.135Z,101.357
2023-04-16T07:42:49.172Z,101.5
2023-04-16T07:43:49.218Z,101.5
2023-04-16T07:44:49.257Z,101.429
2023-04-16T07:45:49.323Z,101.357
2023-04-16T07:46:49.389Z,101.571
2023-04-16T07:47:49.425Z,101.5
2023-04-16T07:48:49.407Z,101.5
2023-04-16T07:49:49.460Z,101.429
2023-04-16T07:50:49.496Z,101.286
2023-04-16T07:51:49.547Z,101.429
2023-04-16T07:52:49.574Z,101.571
2023-04-16T07:53:49.618Z,101.5
2023-04-16T07:54:49.655Z,101.286
2023-04-16T07:55:49.690Z,101.643
2023-04-16T07:56:49.728Z,101.643
2023-04-16T07:57:49.769Z,101.5
2023-04-16T07:58:49.812Z,101.429
2023-04-16T07:59:49.844Z,101.643
2023-04-16T08:00:51.081Z,101.5
2023-04-16T08:01:49.988Z,101.5
2023-04-16T08:02:50.141Z,101.5
2023-04-16T08:03:50.171Z,101.714
2023-04-16T08:04:50.114Z,101.5
2023-04-16T08:05:50.077Z,101.714
2023-04-16T08:06:50.118Z,101.5
2023-04-16T08:07:50.147Z,101.429
2023-04-16T08:08:50.192Z,101.5
2023-04-16T08:09:50.232Z,101.571
2023-04-16T08:10:50.275Z,101.571
2023-04-16T08:11:50.316Z,101.571
2023-04-16T08:12:50.357Z,101.5
2023-04-16T08:13:50.401Z,101.643
2023-04-16T08:14:50.461Z,101.429
2023-04-16T08:15:50.512Z,101.571
2023-04-16T08:16:50.546Z,101.429
2023-04-16T08:17:50.641Z,101.571
2023-04-16T08:18:50.603Z,101.429
2023-04-16T08:19:50.668Z,101.429
2023-04-16T08:20:50.681Z,101.357
2023-04-16T08:21:50.715Z,101.429
2023-04-16T08:22:50.760Z,101.5
2023-04-16T08:23:50.810Z,101.286
2023-04-16T08:24:50.848Z,101.5
2023-04-16T08:25:52.925Z,101.429
2023-04-16T08:26:50.926Z,101.429
2023-04-16T08:27:50.989Z,101.643
2023-04-16T08:28:51.008Z,101.5
2023-04-16T08:29:51.041Z,101.5
2023-04-16T08:30:51.239Z,101.429
2023-04-16T08:31:51.133Z,101.357
2023-04-16T08:32:51.222Z,101.571
2023-04-16T08:33:51.205Z,101.643
2023-04-16T08:34:51.246Z,101.5
2023-04-16T08:35:51.294Z,101.429
2023-04-16T08:36:51.321Z,101.571
2023-04-16T08:37:51.355Z,101.571
2023-04-16T08:38:51.398Z,101.429
2023-04-16T08:39:51.448Z,101.571
2023-04-16T08:40:51.467Z,101.429
2023-04-16T08:41:51.517Z,101.571
2023-04-16T08:42:51.558Z,101.429
2023-04-16T08:43:51.598Z,101.429
2023-04-16T08:44:51.636Z,101.571
2023-04-16T08:45:51.680Z,101.429
2023-04-16T08:46:51.737Z,101.5
2023-04-16T08:47:51.775Z,101.571
2023-04-16T08:48:51.795Z,101.5
2023-04-16T08:49:51.834Z,101.429
2023-04-16T08:50:52.224Z,101.429
2023-04-16T08:51:51.920Z,101.571
2023-04-16T08:52:51.946Z,101.643
2023-04-16T08:53:51.988Z,101.643
2023-04-16T08:54:56.455Z,101.5
2023-04-16T08:55:52.075Z,101.643
2023-04-16T08:56:52.113Z,101.5
2023-04-16T08:57:52.154Z,101.357
2023-04-16T08:58:52.190Z,101.571
2023-04-16T08:59:52.233Z,101.5
2023-04-16T09:00:52.277Z,101.643
2023-04-16T09:01:52.376Z,101.5
2023-04-16T09:02:52.574Z,101.643
2023-04-16T09:03:52.518Z,101.571
2023-04-16T09:04:52.472Z,101.643
2023-04-16T09:05:52.480Z,101.643
2023-04-16T09:06:52.516Z,101.571
2023-04-16T09:07:52.546Z,101.643
2023-04-16T09:08:52.579Z,101.571
2023-04-16T09:09:52.630Z,101.571
2023-04-16T09:10:52.664Z,101.786
2023-04-16T09:11:52.707Z,101.286
2023-04-16T09:12:52.752Z,101.571
2023-04-16T09:13:52.787Z,101.5
2023-04-16T09:14:52.827Z,101.5
2023-04-16T09:15:52.890Z,101.357
2023-04-16T09:16:52.918Z,101.714
2023-04-16T09:17:53.009Z,101.5
2023-04-16T09:18:52.979Z,101.571
2023-04-16T09:19:53.023Z,101.5
2023-04-16T09:20:53.053Z,101.5
2023-04-16T09:21:53.090Z,101.5
2023-04-16T09:22:53.148Z,101.714
2023-04-16T09:23:53.168Z,101.714
2023-04-16T09:24:53.217Z,101.357
2023-04-16T09:25:53.272Z,101.571
2023-04-16T09:26:53.338Z,101.643
2023-04-16T09:27:53.332Z,101.571
2023-04-16T09:28:53.388Z,101.571
2023-04-16T09:29:53.412Z,101.5
2023-04-16T09:30:53.450Z,101.357
2023-04-16T09:31:53.547Z,101.643
2023-04-16T09:32:53.568Z,101.357
2023-04-16T09:33:53.560Z,101.643
2023-04-16T09:34:53.599Z,101.429
2023-04-16T09:35:53.767Z,101.571
2023-04-16T09:36:53.688Z,101.571
2023-04-16T09:37:53.733Z,101.786
2023-04-16T09:38:56.219Z,101.429
2023-04-16T09:39:53.801Z,101.714
2023-04-16T09:40:53.846Z,101.571
2023-04-16T09:41:53.893Z,101.5
2023-04-16T09:42:53.931Z,101.429
2023-04-16T09:43:53.967Z,101.714
2023-04-16T09:44:54.016Z,101.643
2023-04-16T09:45:54.142Z,101.429
2023-04-16T09:46:54.095Z,101.429
2023-04-16T09:47:54.205Z,101.429
2023-04-16T09:48:54.188Z,101.571
2023-04-16T09:49:54.210Z,101.571
2023-04-16T09:50:54.352Z,101.5
2023-04-16T09:51:54.291Z,101.5
2023-04-16T09:52:54.339Z,101.5
2023-04-16T09:53:54.376Z,101.5
2023-04-16T09:54:54.413Z,101.5
2023-04-16T09:55:54.448Z,101.643
2023-04-16T09:56:54.489Z,101.714
2023-04-16T09:57:54.540Z,101.643
2023-04-16T09:58:54.573Z,101.5
2023-04-16T09:59:54.611Z,101.571
2023-04-16T10:00:54.679Z,101.571
2023-04-16T10:02:07.718Z,101.5
2023-04-16T10:02:54.766Z,101.5
2023-04-16T10:03:54.826Z,101.5
2023-04-16T10:04:54.925Z,101.429
2023-04-16T10:05:54.848Z,101.5
2023-04-16T10:06:54.906Z,101.357
2023-04-16T10:07:54.942Z,101.571
2023-04-16T10:08:54.969Z,101.5
2023-04-16T10:09:55.007Z,101.714
2023-04-16T10:10:55.069Z,101.571
2023-04-16T10:11:55.085Z,101.5
2023-04-16T10:12:55.126Z,101.714
2023-04-16T10:13:55.183Z,101.429
2023-04-16T10:14:55.214Z,101.571
2023-04-16T10:15:55.254Z,101.571
2023-04-16T10:16:55.310Z,101.571
2023-04-16T10:17:55.378Z,101.571
2023-04-16T10:18:55.379Z,101.571
2023-04-16T10:19:55.422Z,101.5
2023-04-16T10:20:55.471Z,101.429
2023-04-16T10:21:55.511Z,101.5
2023-04-16T10:22:55.533Z,101.571
2023-04-16T10:23:55.583Z,101.643
2023-04-16T10:24:55.620Z,101.571
2023-04-16T10:25:57.457Z,101.571
2023-04-16T10:26:55.703Z,101.571
2023-04-16T10:27:55.749Z,101.571
2023-04-16T10:28:55.777Z,101.571
2023-04-16T10:29:55.814Z,101.571
2023-04-16T10:30:55.886Z,101.5
2023-04-16T10:31:55.883Z,101.571
2023-04-16T10:32:56.728Z,101.571
2023-04-16T10:33:55.976Z,101.5
2023-04-16T10:34:56.008Z,101.571
2023-04-16T10:36:06.996Z,101.571
2023-04-16T10:36:56.137Z,101.643
2023-04-16T10:37:56.136Z,101.429
2023-04-16T10:38:56.175Z,101.571
2023-04-16T10:39:56.218Z,101.571
2023-04-16T10:40:56.263Z,101.429
2023-04-16T10:41:56.307Z,101.643
2023-04-16T10:42:56.378Z,101.571
2023-04-16T10:43:56.379Z,101.643
2023-04-16T10:44:56.426Z,101.643
2023-04-16T10:45:56.524Z,101.571
2023-04-16T10:46:56.505Z,101.571
2023-04-16T10:47:56.543Z,101.571
2023-04-16T10:48:56.580Z,101.571
2023-04-16T10:49:56.624Z,101.571
2023-04-16T10:50:56.651Z,101.714
2023-04-16T10:51:56.704Z,101.429
2023-04-16T10:52:56.741Z,101.643
2023-04-16T10:53:56.764Z,101.571
2023-04-16T10:54:56.814Z,101.571
2023-04-16T10:55:56.847Z,101.571
2023-04-16T10:56:56.892Z,101.714
2023-04-16T10:57:56.931Z,101.5
2023-04-16T10:58:56.971Z,101.643
2023-04-16T10:59:56.997Z,101.643
2023-04-16T11:00:57.049Z,101.5
2023-04-16T11:01:57.231Z,101.714
2023-04-16T11:02:57.376Z,101.643
2023-04-16T11:03:57.389Z,101.643
2023-04-16T11:04:57.280Z,101.571
2023-04-16T11:05:57.251Z,101.643
2023-04-16T11:06:57.294Z,101.643
2023-04-16T11:07:57.338Z,101.643
2023-04-16T11:08:57.371Z,101.5
2023-04-16T11:09:57.434Z,101.643
2023-04-16T11:10:57.458Z,101.643
2023-04-16T11:11:57.495Z,101.643
2023-04-16T11:12:57.542Z,101.643
2023-04-16T11:13:57.592Z,101.643
2023-04-16T11:14:57.608Z,101.5
2023-04-16T11:15:57.740Z,101.643
2023-04-16T11:16:57.691Z,101.643
2023-04-16T11:17:57.769Z,101.5
2023-04-16T11:18:57.767Z,101.571
2023-04-16T11:19:57.797Z,101.643
2023-04-16T11:20:57.839Z,101.643
2023-04-16T11:21:57.903Z,101.643
2023-04-16T11:22:57.976Z,101.571
2023-04-16T11:23:57.965Z,101.786
2023-04-16T11:24:58.007Z,101.5
2023-04-16T11:25:58.049Z,101.5
2023-04-16T11:26:58.108Z,101.571
2023-04-16T11:27:58.129Z,101.429
2023-04-16T11:28:58.173Z,101.5
2023-04-16T11:29:58.205Z,101.429
2023-04-16T11:30:58.277Z,101.571
2023-04-16T11:31:58.299Z,101.5
2023-04-16T11:32:58.478Z,101.643
2023-04-16T11:33:58.402Z,101.643
2023-04-16T11:34:58.410Z,101.643
2023-04-16T11:35:58.453Z,101.5
2023-04-16T11:36:58.497Z,101.643
2023-04-16T11:37:58.539Z,101.571
2023-04-16T11:38:58.581Z,101.643
2023-04-16T11:39:58.630Z,101.571
2023-04-16T11:40:58.665Z,101.786
2023-04-16T11:41:58.731Z,101.571
2023-04-16T11:42:59.883Z,101.5
2023-04-16T11:43:58.806Z,101.714
2023-04-16T11:44:58.833Z,101.714
2023-04-16T11:45:58.871Z,101.571
2023-04-16T11:46:58.969Z,101.643
2023-04-16T11:47:58.986Z,101.429
2023-04-16T11:48:58.997Z,101.571
2023-04-16T11:49:59.034Z,101.714
2023-04-16T11:50:59.083Z,101.571
2023-04-16T11:51:59.139Z,101.643
2023-04-16T11:52:59.158Z,101.571
2023-04-16T11:53:59.200Z,101.571
2023-04-16T11:54:59.235Z,101.714
2023-04-16T11:55:59.279Z,101.571
2023-04-16T11:56:59.316Z,101.643
2023-04-16T11:57:59.357Z,101.571
2023-04-16T11:58:59.400Z,101.714
2023-04-16T12:00:01.524Z,101.571
2023-04-16T12:00:59.477Z,101.571
2023-04-16T12:01:59.586Z,101.643
2023-04-16T12:02:59.681Z,101.714
2023-04-16T12:03:59.906Z,101.643
2023-04-16T12:04:59.704Z,101.643
2023-04-16T12:05:59.673Z,101.714
2023-04-16T12:06:59.717Z,101.643
2023-04-16T12:07:59.755Z,101.643
2023-04-16T12:08:59.791Z,101.714
2023-04-16T12:09:59.833Z,101.714
2023-04-16T12:10:59.878Z,101.714
2023-04-16T12:11:59.921Z,101.571